Time;durP1;ratioP1;P1;durP2;ratioP2;P2;SDS_P1;SDS_P2;PMS_P1;PMS_P2;Temp;Humidity;BMP_temperature;BMP_pressure;BME280_temperature;BME280_humidity;BME280_pressure;Samples;Min_cycle;Max_cycle;Signal;HPM_P1;HPM_P2
2021/04/05 00:01:50;;;;;;;33.97;21.07;;;;;;;6.10;63.85;99826.88;5098133;28;20479;-60
2021/04/05 00:04:17;;;;;;;40.50;24.37;;;;;;;5.98;64.00;99810.09;5087955;28;20452;-60
2021/04/05 00:06:43;;;;;;;36.93;22.20;;;;;;;6.10;63.67;99789.72;5085513;28;20480;-60
2021/04/05 00:09:09;;;;;;;34.93;21.27;;;;;;;6.23;63.54;99797.53;5083494;28;20499;-60
2021/04/05 00:11:35;;;;;;;37.37;23.17;;;;;;;6.09;63.96;99789.84;5095115;28;20490;-60
2021/04/05 00:14:02;;;;;;;39.47;23.33;;;;;;;6.06;63.82;99780.31;5104514;28;20471;-60
2021/04/05 00:16:28;;;;;;;38.43;24.83;;;;;;;5.69;65.06;99769.09;5091532;28;20482;-60
2021/04/05 00:18:55;;;;;;;39.63;22.90;;;;;;;5.85;64.90;99757.16;5084090;28;20444;-60
2021/04/05 00:21:22;;;;;;;38.47;20.33;;;;;;;6.16;63.93;99767.13;5083701;28;20488;-60
2021/04/05 00:23:49;;;;;;;37.97;21.70;;;;;;;6.14;64.12;99761.94;5083731;28;20432;-60
2021/04/05 00:26:16;;;;;;;36.93;22.97;;;;;;;6.07;64.28;99755.44;5090103;28;20565;-60
2021/04/05 00:28:42;;;;;;;36.47;22.20;;;;;;;6.05;64.75;99744.13;5100284;28;20874;-60
2021/04/05 00:31:09;;;;;;;45.83;20.93;;;;;;;6.02;64.54;99733.75;5082725;28;20463;-60
2021/04/05 00:33:35;;;;;;;41.07;23.20;;;;;;;6.10;64.39;99725.19;5083159;28;20499;-60
2021/04/05 00:36:02;;;;;;;37.90;23.00;;;;;;;6.12;64.46;99718.78;5090090;28;20478;-60
2021/04/05 00:38:28;;;;;;;39.83;25.20;;;;;;;5.91;65.19;99720.50;5083036;28;20448;-60
2021/04/05 00:40:58;;;;;;;42.53;23.83;;;;;;;6.37;63.70;99708.78;5082531;28;20487;-60
2021/04/05 00:43:24;;;;;;;35.83;22.73;;;;;;;6.18;64.11;99698.84;5101745;28;20448;-60
2021/04/05 00:45:51;;;;;;;45.70;25.10;;;;;;;6.15;64.46;99701.78;5102722;28;20486;-60
2021/04/05 00:48:17;;;;;;;45.07;26.47;;;;;;;6.32;64.05;99695.03;5102309;28;20439;-60
2021/04/05 00:50:48;;;;;;;38.23;22.07;;;;;;;6.14;64.65;99697.41;5102167;28;20495;-60
2021/04/05 00:53:19;;;;;;;41.90;25.57;;;;;;;6.26;64.27;99680.47;5100354;28;20498;-60
2021/04/05 00:55:46;;;;;;;40.23;24.77;;;;;;;6.54;63.50;99681.66;5102393;28;20502;-60
2021/04/05 00:58:13;;;;;;;45.97;25.87;;;;;;;6.54;63.46;99667.56;5088992;28;20440;-59
2021/04/05 01:00:42;;;;;;;45.83;26.07;;;;;;;6.44;63.82;99648.91;5081987;28;20967;-60
2021/04/05 01:03:10;;;;;;;43.40;25.30;;;;;;;6.69;63.18;99642.34;5095446;28;20466;-60
2021/04/05 01:05:36;;;;;;;48.00;26.60;;;;;;;6.81;62.79;99632.50;5091124;28;21036;-60
2021/04/05 01:08:03;;;;;;;44.10;26.83;;;;;;;6.43;64.16;99631.28;5102999;28;20427;-60
2021/04/05 01:10:32;;;;;;;43.27;25.60;;;;;;;6.38;64.06;99617.56;5100498;28;20455;-59
2021/04/05 01:12:59;;;;;;;45.27;26.30;;;;;;;6.45;64.37;99596.63;5103204;28;20570;-60
2021/04/05 01:15:25;;;;;;;43.07;25.97;;;;;;;6.57;63.43;99583.16;5095410;28;20468;-60
2021/04/05 01:17:51;;;;;;;40.90;24.97;;;;;;;6.36;64.56;99577.03;5082773;28;20456;-60
2021/04/05 01:20:19;;;;;;;41.70;25.67;;;;;;;6.71;63.28;99565.19;5097101;28;20452;-60
2021/04/05 01:22:47;;;;;;;40.67;24.30;;;;;;;6.32;64.36;99559.66;5088060;28;20451;-60
2021/04/05 01:25:15;;;;;;;40.60;24.83;;;;;;;6.33;64.41;99542.75;5098186;28;20454;-60
2021/04/05 01:27:42;;;;;;;45.43;26.57;;;;;;;6.43;64.58;99540.19;5102774;28;20436;-60
2021/04/05 01:30:27;;;;;;;44.47;28.27;;;;;;;6.11;65.38;99536.63;5100353;28;20497;-60
2021/04/05 01:33:00;;;;;;;41.00;24.67;;;;;;;6.64;63.79;99522.38;5101498;28;20490;-60
2021/04/05 01:35:27;;;;;;;39.77;25.20;;;;;;;6.37;64.82;99525.59;5092877;28;20485;-60
2021/04/05 01:37:54;;;;;;;41.50;25.53;;;;;;;6.57;64.25;99526.53;5081926;28;20456;-60
2021/04/05 01:40:20;;;;;;;40.53;23.80;;;;;;;6.70;63.52;99521.84;5102046;28;20438;-60
2021/04/05 01:42:47;;;;;;;39.70;23.40;;;;;;;6.34;64.61;99520.56;5102257;28;20451;-58
2021/04/05 01:45:17;;;;;;;51.23;26.87;;;;;;;6.34;64.67;99517.91;5082262;28;20925;-58
2021/04/05 01:47:43;;;;;;;47.87;25.17;;;;;;;6.62;64.03;99505.75;5081199;28;20455;-58
2021/04/05 01:50:10;;;;;;;37.73;23.37;;;;;;;6.69;63.96;99503.38;5098607;28;20815;-60
2021/04/05 01:52:39;;;;;;;39.93;24.17;;;;;;;6.63;63.87;99496.81;5102006;28;20832;-60
2021/04/05 01:55:08;;;;;;;45.20;25.50;;;;;;;6.44;64.63;99491.38;5100781;28;20451;-60
2021/04/05 01:57:35;;;;;;;45.30;25.20;;;;;;;6.59;64.10;99482.09;5102262;28;20436;-60
2021/04/05 02:00:01;;;;;;;47.13;24.53;;;;;;;6.77;63.59;99480.50;5087278;28;20452;-60
2021/04/05 02:02:28;;;;;;;40.97;24.83;;;;;;;6.68;63.71;99483.09;5079971;28;20475;-60
2021/04/05 02:04:55;;;;;;;39.57;23.23;;;;;;;6.62;64.13;99462.41;5083087;28;20506;-60
2021/04/05 02:07:21;;;;;;;38.27;23.13;;;;;;;6.67;63.58;99458.38;5080705;28;20480;-60
2021/04/05 02:09:47;;;;;;;39.97;24.57;;;;;;;6.42;64.23;99449.03;5093305;28;20475;-60
2021/04/05 02:12:15;;;;;;;41.33;23.17;;;;;;;6.38;64.49;99447.63;5100905;28;20475;-60
2021/04/05 02:14:41;;;;;;;42.97;22.30;;;;;;;6.59;64.14;99439.59;5091258;28;20472;-60
2021/04/05 02:17:08;;;;;;;34.73;20.77;;;;;;;6.19;65.28;99416.53;5080515;28;20484;-60
2021/04/05 02:19:34;;;;;;;36.40;21.70;;;;;;;6.66;63.93;99411.53;5084572;28;20505;-60
2021/04/05 02:22:01;;;;;;;43.87;23.17;;;;;;;6.72;63.73;99407.50;5080782;28;20484;-60
2021/04/05 02:24:27;;;;;;;36.77;22.60;;;;;;;6.55;64.14;99406.34;5088981;28;20458;-60
2021/04/05 02:26:54;;;;;;;40.73;23.33;;;;;;;6.57;64.08;99407.88;5101196;28;20475;-60
2021/04/05 02:29:21;;;;;;;39.67;21.93;;;;;;;6.78;63.53;99405.09;5084277;28;20444;-60
2021/04/05 02:31:48;;;;;;;31.60;20.47;;;;;;;6.59;64.08;99389.13;5080419;28;20475;-58
2021/04/05 02:34:14;;;;;;;41.90;21.30;;;;;;;6.48;64.46;99403.38;5087072;28;20565;-60
2021/04/05 02:36:41;;;;;;;38.20;21.80;;;;;;;6.78;63.53;99402.44;5080840;28;20480;-60
2021/04/05 02:39:11;;;;;;;41.10;21.60;;;;;;;6.87;63.25;99379.53;5082244;28;20444;-60
2021/04/05 02:41:41;;;;;;;38.87;21.10;;;;;;;6.82;63.49;99384.41;5080471;28;20475;-60
2021/04/05 02:44:07;;;;;;;37.57;21.27;;;;;;;6.98;62.90;99382.06;5094801;28;20450;-60
2021/04/05 02:46:36;;;;;;;32.80;19.27;;;;;;;6.82;63.24;99368.47;5100290;28;20504;-60
2021/04/05 02:49:06;;;;;;;37.30;21.97;;;;;;;7.22;62.22;99369.34;5096749;28;20518;-60
2021/04/05 02:51:33;;;;;;;29.90;18.10;;;;;;;6.90;62.89;99360.66;5100348;28;20475;-58
2021/04/05 02:54:00;;;;;;;31.97;18.87;;;;;;;7.08;62.50;99358.16;5089675;28;20474;-60
2021/04/05 02:56:27;;;;;;;39.13;20.77;;;;;;;6.74;63.51;99347.94;5087748;28;20528;-59
2021/04/05 02:58:55;;;;;;;31.17;19.00;;;;;;;7.12;62.52;99330.31;5097383;28;20452;-60
2021/04/05 03:01:23;;;;;;;26.90;17.90;;;;;;;6.87;62.78;99322.91;5079971;28;20479;-60
2021/04/05 03:03:50;;;;;;;33.83;20.00;;;;;;;7.08;62.39;99305.00;5083270;28;20550;-59
2021/04/05 03:06:17;;;;;;;36.87;20.90;;;;;;;7.41;61.77;99302.00;5098854;28;20482;-58
2021/04/05 03:08:44;;;;;;;33.77;19.87;;;;;;;7.16;62.35;99304.28;5080719;28;20487;-58
2021/04/05 03:11:12;;;;;;;39.73;21.90;;;;;;;7.07;62.74;99291.88;5100536;28;20476;-58
2021/04/05 03:13:39;;;;;;;39.33;20.97;;;;;;;7.45;61.74;99287.47;5102273;28;20471;-59
2021/04/05 03:16:06;;;;;;;37.27;20.40;;;;;;;7.08;62.55;99293.53;5103978;28;20475;-59
2021/04/05 03:18:34;;;;;;;31.17;19.33;;;;;;;7.05;63.03;99268.09;5104954;28;20439;-59
2021/04/05 03:21:04;;;;;;;34.93;19.80;;;;;;;7.46;61.82;99278.47;5084797;28;20479;-58
2021/04/05 03:23:31;;;;;;;35.23;18.67;;;;;;;7.24;62.42;99267.22;5084552;28;20459;-59
2021/04/05 03:25:57;;;;;;;33.67;18.83;;;;;;;7.26;62.27;99262.59;5102000;28;20509;-59
2021/04/05 03:28:23;;;;;;;28.30;18.60;;;;;;;7.32;62.24;99261.16;5105234;28;20442;-59
2021/04/05 03:30:51;;;;;;;33.17;18.87;;;;;;;7.38;62.25;99263.25;5086749;28;20502;-59
2021/04/05 03:33:19;;;;;;;31.90;18.70;;;;;;;7.50;61.74;99250.63;5086160;28;20491;-59
2021/04/05 03:35:51;;;;;;;36.77;20.87;;;;;;;7.25;62.71;99252.91;5103872;28;20467;-59
2021/04/05 03:38:18;;;;;;;30.00;18.43;;;;;;;7.28;62.51;99222.56;5104619;28;20442;-59
2021/04/05 03:40:44;;;;;;;28.50;18.17;;;;;;;7.35;62.48;99221.81;5089103;28;20482;-59
2021/04/05 03:43:20;;;;;;;34.97;20.23;;;;;;;7.16;63.16;99213.91;5084311;28;20459;-59
2021/04/05 03:45:50;;;;;;;33.70;18.83;;;;;;;7.25;62.56;99214.88;5097385;28;20929;-59
2021/04/05 03:48:20;;;;;;;39.60;18.33;;;;;;;7.30;63.07;99208.13;5104427;28;20462;-59
2021/04/05 03:50:49;;;;;;;29.77;17.90;;;;;;;7.09;63.64;99203.00;5089465;28;20494;-59
2021/04/05 03:53:25;;;;;;;45.63;21.57;;;;;;;7.29;63.03;99205.59;5093771;28;20508;-59
2021/04/05 03:55:57;;;;;;;35.27;20.13;;;;;;;7.33;62.83;99189.22;5096616;28;20792;-59
2021/04/05 03:58:27;;;;;;;27.77;17.80;;;;;;;7.06;63.52;99175.88;5099749;28;20443;-59
2021/04/05 04:00:54;;;;;;;35.80;18.90;;;;;;;7.22;63.38;99184.09;5096665;28;20558;-59
2021/04/05 04:03:29;;;;;;;34.63;18.70;;;;;;;7.26;63.51;99180.16;5084260;28;20474;-59
2021/04/05 04:05:58;;;;;;;32.87;18.23;;;;;;;7.17;63.95;99157.13;5084333;28;20483;-59
2021/04/05 04:08:27;;;;;;;29.63;17.03;;;;;;;7.13;63.89;99153.06;5083254;28;20480;-59
2021/04/05 04:10:56;;;;;;;31.40;19.30;;;;;;;7.52;62.86;99164.38;5087681;28;20512;-59
2021/04/05 04:13:23;;;;;;;34.13;21.00;;;;;;;7.48;63.17;99155.03;5104032;28;20636;-59
2021/04/05 04:15:50;;;;;;;33.10;17.87;;;;;;;7.37;63.42;99135.75;5099067;28;20475;-59
2021/04/05 04:18:17;;;;;;;32.33;18.23;;;;;;;7.34;63.94;99136.88;5084364;28;20448;-59
2021/04/05 04:20:43;;;;;;;31.10;18.93;;;;;;;7.43;63.50;99129.84;5088702;28;20474;-59
2021/04/05 04:23:10;;;;;;;36.87;20.10;;;;;;;7.63;62.55;99142.06;5103740;28;20459;-59
2021/04/05 04:25:37;;;;;;;40.80;19.30;;;;;;;7.60;62.96;99133.53;5099082;28;20491;-59
2021/04/05 04:28:04;;;;;;;34.70;17.93;;;;;;;7.43;63.72;99132.50;5083325;28;20435;-59
2021/04/05 04:30:34;;;;;;;27.23;18.87;;;;;;;7.59;63.36;99118.56;5084043;28;20464;-59
2021/04/05 04:33:02;;;;;;;32.13;18.47;;;;;;;7.48;63.49;99130.22;5082850;28;20460;-59
2021/04/05 04:35:29;;;;;;;36.93;20.40;;;;;;;7.49;63.99;99124.78;5083048;28;20615;-59
2021/04/05 04:37:56;;;;;;;40.10;20.67;;;;;;;7.65;63.22;99120.63;5103338;28;20423;-59
2021/04/05 04:40:24;;;;;;;35.73;19.07;;;;;;;7.45;64.05;99128.72;5103182;28;20458;-59
2021/04/05 04:42:51;;;;;;;30.20;19.63;;;;;;;7.58;63.45;99108.91;5083184;28;20478;-58
2021/04/05 04:45:18;;;;;;;39.87;21.13;;;;;;;7.44;64.12;99092.47;5082470;28;20432;-59
2021/04/05 04:47:44;;;;;;;35.63;20.67;;;;;;;7.57;63.99;99094.78;5100185;28;20454;-59
2021/04/05 04:50:14;;;;;;;35.90;18.87;;;;;;;7.46;64.09;99090.50;5089239;28;20444;-58
2021/04/05 04:52:40;;;;;;;37.17;19.00;;;;;;;7.70;63.80;99079.28;5082596;28;20456;-59
2021/04/05 04:55:08;;;;;;;38.17;21.07;;;;;;;7.57;64.24;99075.31;5082868;28;21012;-59
2021/04/05 04:57:34;;;;;;;38.57;19.97;;;;;;;7.58;64.49;99072.50;5082706;28;21053;-59
2021/04/05 05:00:02;;;;;;;30.23;16.27;;;;;;;7.29;65.14;99076.19;5092496;28;21047;-59
2021/04/05 05:02:29;;;;;;;30.87;18.10;;;;;;;7.44;65.09;99073.03;5102012;28;20844;-59
2021/04/05 05:04:56;;;;;;;36.10;19.47;;;;;;;7.53;64.88;99067.66;5096442;28;20455;-59
2021/04/05 05:07:24;;;;;;;41.43;19.03;;;;;;;7.65;64.34;99062.94;5102389;28;20478;-59
2021/04/05 05:09:51;;;;;;;32.30;19.67;;;;;;;7.53;64.85;99051.69;5093573;28;20491;-59
2021/04/05 05:12:17;;;;;;;32.27;20.57;;;;;;;7.67;64.25;99054.81;5081879;28;20471;-58
2021/04/05 05:14:44;;;;;;;36.43;18.43;;;;;;;7.57;64.63;99054.88;5084022;28;20503;-58
2021/04/05 05:17:11;;;;;;;40.80;22.97;;;;;;;7.83;64.26;99041.66;5083872;28;20487;-59
2021/04/05 05:19:38;;;;;;;39.30;21.17;;;;;;;7.61;65.58;99042.13;5102099;28;20943;-59
2021/04/05 05:22:05;;;;;;;38.43;20.60;;;;;;;7.71;65.94;99035.72;5085761;28;20480;-59
2021/04/05 05:24:32;;;;;;;36.73;20.60;;;;;;;7.77;67.07;99036.13;5082944;28;20440;-59
2021/04/05 05:26:58;;;;;;;32.70;19.70;;;;;;;7.40;68.38;99021.97;5081209;28;20475;-59
2021/04/05 05:29:27;;;;;;;39.00;21.63;;;;;;;7.53;69.01;99032.22;5098183;28;20865;-59
2021/04/05 05:31:53;;;;;;;35.40;21.40;;;;;;;7.50;69.46;99025.41;5101288;28;20482;-59
2021/04/05 05:34:21;;;;;;;37.73;21.30;;;;;;;7.49;69.29;99023.72;5083226;28;20498;-59
2021/04/05 05:36:48;;;;;;;37.93;21.20;;;;;;;7.34;69.94;99012.78;5081506;28;20479;-59
2021/04/05 05:39:17;;;;;;;38.10;21.63;;;;;;;7.64;69.58;99025.88;5083043;28;20456;-59
2021/04/05 05:41:58;;;;;;;36.00;21.33;;;;;;;7.63;69.73;99013.53;5081568;28;21004;-59
2021/04/05 05:44:27;;;;;;;41.40;22.53;;;;;;;7.67;69.81;99004.25;5100442;28;20438;-59
2021/04/05 05:46:57;;;;;;;44.93;22.07;;;;;;;7.45;70.65;99008.22;5085910;28;20483;-59
2021/04/05 05:49:33;;;;;;;38.03;21.90;;;;;;;7.35;70.90;98992.34;5082707;28;20451;-59
2021/04/05 05:52:07;;;;;;;43.00;23.60;;;;;;;7.52;71.28;99003.97;5095222;28;20485;-59
2021/04/05 05:54:57;;;;;;;38.63;23.80;;;;;;;7.50;71.73;98992.66;5102199;28;20474;-59
2021/04/05 05:57:29;;;;;;;40.87;21.67;;;;;;;7.39;72.25;98983.06;5093936;28;20525;-59
2021/04/05 06:00:04;;;;;;;42.33;23.50;;;;;;;7.47;72.19;98985.81;5102613;28;20431;-59
2021/04/05 06:02:48;;;;;;;37.73;23.10;;;;;;;7.46;71.79;98976.13;5083031;28;20834;-59
2021/04/05 06:05:34;;;;;;;36.73;22.60;;;;;;;7.20;72.82;98972.56;5098729;28;20458;-59
2021/04/05 06:08:07;;;;;;;47.27;24.50;;;;;;;7.44;72.19;98964.81;5098428;28;20526;-59
2021/04/05 06:10:43;;;;;;;40.90;24.00;;;;;;;7.69;71.44;98975.69;5084799;28;20483;-59
2021/04/05 06:13:13;;;;;;;42.73;22.80;;;;;;;7.34;72.52;98972.91;5081588;28;20462;-59
2021/04/05 06:15:51;;;;;;;43.33;24.60;;;;;;;7.69;71.96;98963.22;5080987;28;20479;-59
2021/04/05 06:18:23;;;;;;;41.83;24.10;;;;;;;7.82;71.46;98960.16;5082841;28;20528;-59
2021/04/05 06:20:57;;;;;;;40.97;23.30;;;;;;;7.74;71.18;98946.78;5081677;28;20522;-59
2021/04/05 06:23:40;;;;;;;40.07;25.40;;;;;;;7.91;70.97;98934.44;5080190;28;20478;-59
2021/04/05 06:26:14;;;;;;;41.67;25.07;;;;;;;7.64;71.79;98952.22;5086053;28;20475;-59
2021/04/05 06:28:49;;;;;;;40.13;23.10;;;;;;;7.79;71.34;98941.00;5086325;28;20447;-59
2021/04/05 06:31:33;;;;;;;36.37;20.90;;;;;;;7.80;71.32;98940.84;5089643;28;20481;-59
2021/04/05 06:34:10;;;;;;;36.93;21.63;;;;;;;7.56;72.08;98938.84;5098805;28;20569;-59
2021/04/05 06:36:44;;;;;;;50.53;23.60;;;;;;;7.62;71.65;98948.88;5085850;28;20475;-59
2021/04/05 06:39:17;;;;;;;36.10;23.13;;;;;;;7.71;71.76;98928.50;5089529;28;20455;-59
2021/04/05 06:42:02;;;;;;;49.20;23.47;;;;;;;7.57;72.06;98929.88;5100754;28;20475;-59
2021/04/05 06:44:46;;;;;;;42.50;21.57;;;;;;;7.49;72.18;98917.34;5083244;28;20473;-58
2021/04/05 06:47:38;;;;;;;39.80;21.90;;;;;;;7.57;72.30;98937.88;5073329;28;20570;-59
2021/04/05 06:50:18;;;;;;;37.30;21.27;;;;;;;7.63;72.11;98928.44;5077193;28;20991;-59
2021/04/05 06:52:59;;;;;;;33.63;21.90;;;;;;;7.49;72.32;98924.50;5081776;28;20486;-58
2021/04/05 06:55:41;;;;;;;32.60;21.13;;;;;;;7.58;72.61;98914.75;5084631;28;20538;-58
2021/04/05 06:58:13;;;;;;;37.00;21.80;;;;;;;7.79;72.22;98927.72;5088867;28;20463;-59
2021/04/05 07:00:53;;;;;;;38.97;22.67;;;;;;;8.02;71.52;98939.53;5066133;28;20933;-59
2021/04/05 07:03:31;;;;;;;34.43;20.07;;;;;;;7.91;71.58;98942.44;5085530;28;20474;-58
2021/04/05 07:06:30;;;;;;;33.43;21.27;;;;;;;8.22;70.56;98934.81;5080496;28;20476;-59
2021/04/05 07:09:04;;;;;;;31.30;20.80;;;;;;;7.91;71.32;98948.56;5053402;28;20494;-59
2021/04/05 07:11:39;;;;;;;33.27;21.00;;;;;;;7.86;71.99;98961.53;5079900;28;20473;-59
2021/04/05 07:14:18;;;;;;;30.83;19.17;;;;;;;7.76;72.91;98990.06;5079326;28;20502;-59
2021/04/05 07:16:52;;;;;;;34.70;18.33;;;;;;;7.69;73.34;99000.47;5087802;28;20938;-58
2021/04/05 07:19:34;;;;;;;17.80;9.60;;;;;;;7.18;71.42;99007.28;5091822;28;20459;-58
2021/04/05 07:22:12;;;;;;;9.37;5.60;;;;;;;6.62;72.11;99025.03;5080221;28;20488;-58
2021/04/05 07:24:47;;;;;;;5.67;3.40;;;;;;;6.31;71.56;99008.50;5082232;28;20589;-59
2021/04/05 07:27:15;;;;;;;1.67;1.40;;;;;;;6.31;71.37;99035.88;5088260;28;20481;-59
2021/04/05 07:29:49;;;;;;;4.77;2.00;;;;;;;6.06;71.44;99039.97;5095602;28;20444;-59
2021/04/05 07:32:22;;;;;;;1.40;1.10;;;;;;;6.01;71.55;99036.91;5088795;28;20468;-58
2021/04/05 07:35:02;;;;;;;1.90;1.00;;;;;;;6.17;70.79;99049.59;5081952;28;21027;-59
2021/04/05 07:37:33;;;;;;;3.90;1.17;;;;;;;6.47;70.46;99048.53;5081351;28;21009;-58
2021/04/05 07:40:13;;;;;;;3.70;1.00;;;;;;;6.38;70.22;99050.25;5081134;28;20878;-58
2021/04/05 07:42:47;;;;;;;1.97;1.00;;;;;;;6.27;69.98;99053.06;5081704;28;20456;-59
2021/04/05 07:45:24;;;;;;;2.50;0.83;;;;;;;6.16;70.41;99055.88;5077913;28;20450;-58
2021/04/05 07:47:57;;;;;;;0.73;0.73;;;;;;;6.15;70.49;99052.38;5080460;28;20463;-59
2021/04/05 07:50:29;;;;;;;2.27;1.00;;;;;;;6.02;71.83;99065.09;5089466;28;21643;-58
2021/04/05 07:52:58;;;;;;;1.13;0.73;;;;;;;5.89;71.25;99069.84;5104537;28;20446;-58
2021/04/05 07:55:26;;;;;;;2.87;0.60;;;;;;;5.50;70.57;99070.63;5097056;28;20475;-58
2021/04/05 07:58:01;;;;;;;0.90;0.80;;;;;;;5.21;70.72;99082.03;5083459;28;20455;-61
2021/04/05 08:00:35;;;;;;;0.80;0.67;;;;;;;5.05;70.87;99094.91;5093622;28;20501;-60
2021/04/05 08:03:06;;;;;;;0.50;0.50;;;;;;;5.20;70.28;99103.34;5104425;28;20993;-59
2021/04/05 08:05:40;;;;;;;0.80;0.70;;;;;;;5.21;70.20;99105.03;5094410;28;20721;-60
2021/04/05 08:08:29;;;;;;;0.90;0.80;;;;;;;5.51;69.08;99106.78;5103515;28;20427;-59
2021/04/05 08:11:03;;;;;;;2.70;0.63;;;;;;;5.72;67.79;99098.72;5089057;28;20785;-59
2021/04/05 08:13:39;;;;;;;1.03;0.60;;;;;;;5.50;67.13;99106.91;5084601;28;20582;-59
2021/04/05 08:16:13;;;;;;;1.60;0.73;;;;;;;5.57;67.29;99108.03;5081592;28;20475;-59
2021/04/05 08:18:45;;;;;;;1.67;0.80;;;;;;;5.78;67.43;99110.56;5095688;28;20438;-59
2021/04/05 08:21:14;;;;;;;4.10;0.80;;;;;;;5.65;67.33;99110.84;5101342;28;20512;-59
2021/04/05 08:23:51;;;;;;;0.97;0.70;;;;;;;5.66;67.59;99110.72;5063685;28;20456;-60
2021/04/05 08:26:26;;;;;;;0.70;0.67;;;;;;;5.87;67.35;99115.06;5083679;28;20478;-59
2021/04/05 08:29:00;;;;;;;1.20;0.70;;;;;;;5.92;66.92;99111.97;5103827;28;20450;-59
2021/04/05 08:31:35;;;;;;;0.73;0.73;;;;;;;6.16;66.50;99115.13;5100813;28;20485;-60
2021/04/05 08:34:16;;;;;;;1.90;0.83;;;;;;;5.90;66.73;99125.38;5100062;28;20487;-60
2021/04/05 08:36:59;;;;;;;2.23;0.70;;;;;;;5.82;66.86;99131.38;5092696;28;20856;-60
2021/04/05 08:39:36;;;;;;;1.90;1.10;;;;;;;6.10;66.48;99136.06;5103257;28;20429;-60
2021/04/05 08:42:13;;;;;;;1.87;0.80;;;;;;;5.94;66.41;99148.03;5087155;28;20510;-60
2021/04/05 08:44:45;;;;;;;1.10;0.70;;;;;;;5.81;66.77;99142.97;5083279;28;20968;-60
2021/04/05 08:47:16;;;;;;;2.20;0.90;;;;;;;6.32;65.91;99146.41;5097813;28;21047;-60
2021/04/05 08:49:46;;;;;;;2.00;0.80;;;;;;;5.54;66.27;99159.53;5092393;28;20530;-59
2021/04/05 08:52:14;;;;;;;1.23;0.70;;;;;;;5.48;67.53;99162.72;5090378;28;20482;-60
2021/04/05 08:54:42;;;;;;;3.80;0.87;;;;;;;5.82;67.23;99173.00;5103253;28;20487;-60
2021/04/05 08:57:13;;;;;;;2.53;1.30;;;;;;;6.40;65.59;99169.56;5102017;28;20991;-60
2021/04/05 08:59:42;;;;;;;1.73;1.60;;;;;;;7.13;64.05;99174.31;5103391;28;20450;-60
2021/04/05 09:02:18;;;;;;;2.57;1.30;;;;;;;7.01;62.45;99176.31;5099674;28;20475;-60
2021/04/05 09:04:45;;;;;;;2.20;1.17;;;;;;;7.24;61.07;99181.28;5095458;28;20447;-60
2021/04/05 09:07:25;;;;;;;2.87;1.73;;;;;;;7.15;61.52;99183.84;5078460;28;20596;-60
2021/04/05 09:09:54;;;;;;;2.93;1.40;;;;;;;6.99;61.04;99183.59;5076322;28;20482;-60
2021/04/05 09:12:22;;;;;;;3.90;1.80;;;;;;;6.88;60.50;99189.09;5072666;28;20498;-60
2021/04/05 09:15:06;;;;;;;4.63;2.20;;;;;;;7.10;60.17;99186.09;5088821;28;20486;-58
2021/04/05 09:17:44;;;;;;;2.70;1.63;;;;;;;6.92;60.40;99179.84;5069233;28;20472;-58
2021/04/05 09:20:38;;;;;;;2.93;1.37;;;;;;;7.37;59.88;99179.13;5065306;28;20487;-60
2021/04/05 09:23:24;;;;;;;5.63;1.87;;;;;;;7.64;58.40;99190.78;5068039;28;20460;-60
2021/04/05 09:25:57;;;;;;;10.63;3.10;;;;;;;7.22;59.35;99178.78;5080516;28;20475;-59
2021/04/05 09:28:41;;;;;;;7.97;1.90;;;;;;;6.93;60.04;99173.56;5072962;28;20451;-60
2021/04/05 09:31:28;;;;;;;8.60;1.57;;;;;;;7.14;58.90;99176.00;5066689;28;20484;-59
2021/04/05 09:34:30;;;;;;;8.80;1.63;;;;;;;6.86;58.13;99186.56;5073840;28;20568;-60
2021/04/05 09:37:10;;;;;;;8.57;2.50;;;;;;;7.12;58.85;99192.09;5068258;28;20476;-59
2021/04/05 09:40:05;;;;;;;10.50;3.37;;;;;;;6.81;58.16;99186.16;5070293;28;20449;-60
2021/04/05 09:42:52;;;;;;;7.10;2.10;;;;;;;7.39;57.22;99177.16;5073876;28;20539;-60
2021/04/05 09:45:24;;;;;;;5.80;2.40;;;;;;;7.04;56.26;99180.53;5067616;28;20519;-59
2021/04/05 09:48:13;;;;;;;14.40;2.07;;;;;;;6.91;55.55;99186.13;5067598;28;20487;-59
2021/04/05 09:50:52;;;;;;;4.47;1.30;;;;;;;6.74;56.55;99182.41;5073295;28;20487;-61
2021/04/05 09:53:31;;;;;;;2.47;1.07;;;;;;;6.24;57.12;99203.81;5068892;28;20461;-60
2021/04/05 09:55:59;;;;;;;3.90;1.77;;;;;;;5.74;61.57;99236.47;5071570;28;20480;-60
2021/04/05 09:58:29;;;;;;;3.03;1.10;;;;;;;5.08;65.64;99232.41;5078074;28;20483;-60
2021/04/05 10:00:59;;;;;;;4.53;1.50;;;;;;;6.04;62.22;99238.25;5081165;28;20471;-60
2021/04/05 10:03:26;;;;;;;4.57;1.50;;;;;;;6.12;60.92;99227.81;5089098;28;20454;-60
2021/04/05 10:05:53;;;;;;;2.60;1.40;;;;;;;5.96;60.39;99235.47;5084759;28;20479;-59
2021/04/05 10:08:24;;;;;;;4.27;1.43;;;;;;;6.37;58.73;99236.22;5079467;28;20451;-60
2021/04/05 10:10:52;;;;;;;3.90;1.33;;;;;;;5.42;57.95;99245.44;5070334;28;20543;-60
2021/04/05 10:13:19;;;;;;;5.53;0.90;;;;;;;5.24;58.40;99248.69;5070933;28;20777;-60
2021/04/05 10:15:46;;;;;;;1.37;1.10;;;;;;;5.56;59.37;99253.03;5079567;28;20522;-60
2021/04/05 10:18:13;;;;;;;6.37;1.20;;;;;;;5.09;60.62;99274.69;5079715;28;20460;-59
2021/04/05 10:20:40;;;;;;;1.80;0.83;;;;;;;5.39;60.58;99273.03;5075364;28;20520;-60
2021/04/05 10:23:09;;;;;;;2.20;1.37;;;;;;;5.31;60.66;99261.41;5073363;28;20456;-60
2021/04/05 10:25:36;;;;;;;5.40;1.27;;;;;;;5.08;63.91;99277.44;5073619;28;20456;-59
2021/04/05 10:28:05;;;;;;;1.03;0.80;;;;;;;4.98;64.20;99281.84;5079299;28;20488;-59
2021/04/05 10:30:34;;;;;;;1.67;0.90;;;;;;;4.80;65.63;99290.34;5073744;28;20455;-60
2021/04/05 10:33:04;;;;;;;0.83;0.60;;;;;;;5.04;63.34;99294.59;5079218;28;20588;-60
2021/04/05 10:35:32;;;;;;;2.30;0.70;;;;;;;5.41;61.35;99296.75;5082330;28;20607;-59
2021/04/05 10:38:03;;;;;;;1.27;0.80;;;;;;;5.30;60.66;99302.97;5080386;28;20451;-59
2021/04/05 10:40:30;;;;;;;1.70;0.90;;;;;;;5.89;59.93;99304.09;5077021;28;21128;-60
2021/04/05 10:42:59;;;;;;;1.30;0.90;;;;;;;5.66;60.56;99316.72;5070282;28;20928;-60
2021/04/05 10:45:28;;;;;;;1.33;1.00;;;;;;;5.83;60.93;99309.94;5076374;28;20484;-59
2021/04/05 10:48:00;;;;;;;1.03;0.90;;;;;;;5.43;61.93;99327.47;5078550;28;20459;-60
2021/04/05 10:50:28;;;;;;;8.67;1.47;;;;;;;5.06;63.82;99338.50;5072811;28;20464;-60
2021/04/05 10:53:05;;;;;;;2.60;1.00;;;;;;;5.03;63.50;99335.28;5079241;28;20452;-59
2021/04/05 10:55:31;;;;;;;0.70;0.70;;;;;;;5.02;63.61;99330.97;5090587;28;20470;-59
2021/04/05 10:58:00;;;;;;;0.60;0.50;;;;;;;5.11;61.99;99316.13;5082236;28;20448;-59
2021/04/05 11:00:29;;;;;;;1.10;0.80;;;;;;;5.68;60.97;99329.81;5075338;28;20468;-59
2021/04/05 11:03:02;;;;;;;0.93;0.83;;;;;;;5.87;58.51;99332.59;5081206;28;20455;-61
2021/04/05 11:05:32;;;;;;;1.30;0.83;;;;;;;6.32;57.15;99336.66;5092251;28;20467;-61
2021/04/05 11:08:01;;;;;;;2.50;1.23;;;;;;;6.68;55.19;99342.31;5078901;28;20448;-58
2021/04/05 11:10:29;;;;;;;11.50;1.00;;;;;;;6.28;53.09;99306.06;5075077;28;21012;-58
2021/04/05 11:12:57;;;;;;;2.00;1.00;;;;;;;6.59;53.30;99338.69;5066167;28;20463;-60
2021/04/05 11:15:26;;;;;;;8.33;1.23;;;;;;;6.13;51.29;99333.00;5076925;28;23396;-61
2021/04/05 11:17:54;;;;;;;7.67;1.33;;;;;;;6.75;50.35;99335.47;5060031;28;20558;-64
2021/04/05 11:20:24;;;;;;;3.43;1.30;;;;;;;7.13;47.68;99329.34;5074354;28;20543;-63
2021/04/05 11:22:56;;;;;;;3.57;1.20;;;;;;;6.76;48.09;99329.19;5077159;28;20456;-65
2021/04/05 11:25:28;;;;;;;7.17;1.60;;;;;;;5.97;48.09;99333.50;5077249;28;20459;-62
2021/04/05 11:28:07;;;;;;;8.90;1.60;;;;;;;6.17;46.54;99331.75;5073914;28;21004;-63
2021/04/05 11:30:34;;;;;;;4.60;1.57;;;;;;;5.80;48.50;99342.88;5081370;28;20466;-62
2021/04/05 11:33:01;;;;;;;2.23;1.10;;;;;;;5.29;49.92;99338.38;5068200;28;20459;-66
2021/04/05 11:35:31;;;;;;;5.00;1.20;;;;;;;4.62;54.13;99350.97;5078862;28;20991;-64
2021/04/05 11:38:00;;;;;;;3.10;1.50;;;;;;;5.44;53.94;99357.47;5077328;28;20594;-64
2021/04/05 11:40:30;;;;;;;4.67;1.50;;;;;;;5.72;52.62;99357.78;5081862;28;20528;-64
2021/04/05 11:42:57;;;;;;;3.37;1.40;;;;;;;6.41;51.69;99363.25;5074825;28;20467;-62
2021/04/05 11:45:29;;;;;;;6.83;1.37;;;;;;;7.22;47.13;99364.88;5081756;28;20456;-62
2021/04/05 11:47:57;;;;;;;7.53;3.27;;;;;;;7.23;44.51;99371.03;5072187;28;20448;-62
2021/04/05 11:50:26;;;;;;;4.27;1.70;;;;;;;7.30;43.48;99354.34;5077858;28;20452;-62